Time,TemperatureF,DewpointF,PressureIn,WindDirection,WindDirectionDegrees,WindSpeedMPH,WindSpeedGustMPH,Humidity,HourlyPrecipIn,Conditions,Clouds,dailyrainin,SoftwareType,DateUTC
2013-06-23 00:00:00,66.8,58.0,30.21,North,1,0.0,13.6,73,0.04,,,0.00,VWS V14.01,2013-06-23 04:00:00,
2013-06-23 00:01:00,68.2,57.9,30.21,North,1,0.0,13.6,70,0.04,,,0.00,VWS V14.01,2013-06-23 04:01:00,
2013-06-23 00:02:00,68.1,57.8,30.21,North,1,0.0,13.6,70,0.04,,,0.00,VWS V14.01,2013-06-23 04:02:00,
2013-06-23 00:03:00,68.1,57.9,30.21,North,1,0.0,13.6,70,0.04,,,0.00,VWS V14.01,2013-06-23 04:03:00,
2013-06-23 00:04:00,66.7,57.9,30.21,North,1,0.0,13.6,73,0.04,,,0.00,VWS V14.01,2013-06-23 04:04:00,
2013-06-23 00:05:00,66.8,58.0,30.21,North,1,0.0,13.6,73,0.04,,,0.00,VWS V14.01,2013-06-23 04:05:00,
2013-06-23 00:06:00,68.0,58.0,30.21,North,1,0.0,13.6,70,0.04,,,0.00,VWS V14.01,2013-06-23 04:06:00,
2013-06-23 00:07:00,66.7,58.1,30.21,North,1,0.0,13.6,74,0.04,,,0.00,VWS V14.01,2013-06-23 04:07:00,
2013-06-23 00:08:00,66.7,58.3,30.21,North,1,0.0,13.6,74,0.04,,,0.00,VWS V14.01,2013-06-23 04:08:00,
2013-06-23 00:09:00,66.7,58.3,30.21,North,1,0.0,13.6,74,0.04,,,0.00,VWS V14.01,2013-06-23 04:09:00,
2013-06-23 00:10:00,66.6,58.2,30.21,North,1,0.0,13.6,74,0.04,,,0.00,VWS V14.01,2013-06-23 04:10:00,
2013-06-23 00:11:00,67.9,58.0,30.21,North,1,0.0,13.6,71,0.04,,,0.00,VWS V14.01,2013-06-23 04:11:00,
2013-06-23 00:12:00,66.5,58.2,30.21,North,1,0.0,13.6,74,0.04,,,0.00,VWS V14.01,2013-06-23 04:12:00,
2013-06-23 00:13:00,66.5,58.2,30.21,North,1,0.0,13.6,75,0.04,,,0.00,VWS V14.01,2013-06-23 04:13:00,
2013-06-23 00:14:00,66.5,58.1,30.21,North,1,0.0,13.6,74,0.04,,,0.00,VWS V14.01,2013-06-23 04:14:00,
2013-06-23 00:15:00,66.4,57.9,30.21,North,1,0.0,13.6,74,0.04,,,0.00,VWS V14.01,2013-06-23 04:15:00,
2013-06-23 00:16:00,66.4,57.8,30.21,North,1,0.0,13.6,74,0.04,,,0.00,VWS V14.01,2013-06-23 04:16:00,
2013-06-23 00:17:00,67.7,58.0,30.21,North,1,0.0,13.6,71,0.04,,,0.00,VWS V14.01,2013-06-23 04:17:00,
2013-06-23 00:18:00,66.4,57.8,30.21,North,1,0.0,13.6,74,0.04,,,0.00,VWS V14.01,2013-06-23 04:18:00,
2013-06-23 00:19:00,66.4,57.8,30.21,North,1,0.0,13.6,74,0.04,,,0.00,VWS V14.01,2013-06-23 04:19:00,
2013-06-23 00:20:00,66.4,57.8,30.21,North,1,0.0,13.6,74,0.04,,,0.00,VWS V14.01,2013-06-23 04:20:00,
2013-06-23 00:21:00,66.4,58.2,30.21,North,1,0.0,13.6,75,0.04,,,0.00,VWS V14.01,2013-06-23 04:21:00,
2013-06-23 00:22:00,67.4,57.9,30.21,North,1,0.0,13.6,72,0.04,,,0.00,VWS V14.01,2013-06-23 04:22:00,
2013-06-23 00:23:00,66.4,58.2,30.21,North,1,0.0,13.6,75,0.04,,,0.00,VWS V14.01,2013-06-23 04:23:00,
2013-06-23 00:24:00,66.3,58.2,30.21,North,1,0.0,13.6,75,0.04,,,0.00,VWS V14.01,2013-06-23 04:24:00,
2013-06-23 00:25:00,67.4,57.8,30.21,North,1,0.0,13.6,71,0.04,,,0.00,VWS V14.01,2013-06-23 04:25:00,
2013-06-23 00:26:00,66.3,58.2,30.21,North,1,0.0,13.6,75,0.04,,,0.00,VWS V14.01,2013-06-23 04:26:00,
2013-06-23 00:27:00,66.3,58.1,30.21,North,1,0.0,13.6,75,0.04,,,0.00,VWS V14.01,2013-06-23 04:27:00,
2013-06-23 00:28:00,66.2,58.0,30.21,North,1,0.0,13.6,75,0.04,,,0.00,VWS V14.01,2013-06-23 04:28:00,
2013-06-23 00:29:00,66.2,58.4,30.21,North,1,0.0,13.6,76,0.04,,,0.00,VWS V14.01,2013-06-23 04:29:00,
2013-06-23 00:30:00,67.3,57.8,30.21,North,1,0.0,13.6,72,0.04,,,0.00,VWS V14.01,2013-06-23 04:30:00,
2013-06-23 00:31:00,66.1,58.4,30.21,North,1,0.0,13.6,76,0.04,,,0.00,VWS V14.01,2013-06-23 04:31:00,
2013-06-23 00:32:00,66.1,58.7,30.21,North,1,0.0,13.6,77,0.04,,,0.00,VWS V14.01,2013-06-23 04:32:00,
2013-06-23 00:33:00,66.0,58.5,30.21,North,1,0.0,13.6,77,0.04,,,0.00,VWS V14.01,2013-06-23 04:33:00,
2013-06-23 00:34:00,66.0,58.5,30.21,North,1,0.0,13.6,77,0.04,,,0.00,VWS V14.01,2013-06-23 04:34:00,
2013-06-23 00:35:00,67.3,58.1,30.21,North,1,0.0,13.6,72,0.04,,,0.00,VWS V14.01,2013-06-23 04:35:00,
2013-06-23 00:37:00,65.9,58.4,30.21,North,1,0.0,13.6,77,0.04,,,0.00,VWS V14.01,2013-06-23 04:37:00,
2013-06-23 00:38:00,65.8,58.3,30.21,North,1,0.0,13.6,77,0.04,,,0.00,VWS V14.01,2013-06-23 04:38:00,
2013-06-23 00:39:00,65.8,58.3,30.21,North,1,0.0,13.6,77,0.04,,,0.00,VWS V14.01,2013-06-23 04:39:00,
2013-06-23 00:40:00,65.8,58.3,30.21,North,1,0.0,13.6,77,0.04,,,0.00,VWS V14.01,2013-06-23 04:40:00,
2013-06-23 00:41:00,67.2,58.3,30.21,North,1,0.0,13.6,73,0.04,,,0.00,VWS V14.01,2013-06-23 04:41:00,
2013-06-23 00:42:00,65.8,58.4,30.21,North,1,0.0,13.6,77,0.04,,,0.00,VWS V14.01,2013-06-23 04:42:00,
2013-06-23 00:43:00,65.7,58.4,30.21,North,1,0.0,13.6,77,0.04,,,0.00,VWS V14.01,2013-06-23 04:43:00,
2013-06-23 00:44:00,65.7,58.4,30.21,North,1,0.0,13.6,77,0.04,,,0.00,VWS V14.01,2013-06-23 04:44:00,
2013-06-23 00:45:00,65.7,58.4,30.21,North,1,0.0,13.6,77,0.04,,,0.00,VWS V14.01,2013-06-23 04:45:00,
2013-06-23 00:46:00,67.0,58.3,30.21,North,1,0.0,13.6,74,0.04,,,0.00,VWS V14.01,2013-06-23 04:46:00,
2013-06-23 00:47:00,65.7,58.3,30.21,North,1,0.0,13.6,77,0.04,,,0.00,VWS V14.01,2013-06-23 04:47:00,
2013-06-23 00:48:00,65.7,58.5,30.21,North,1,0.0,13.6,77,0.04,,,0.00,VWS V14.01,2013-06-23 04:48:00,
2013-06-23 00:49:00,65.7,58.6,30.21,North,1,0.0,13.6,78,0.04,,,0.00,VWS V14.01,2013-06-23 04:49:00,
2013-06-23 00:50:00,65.6,58.6,30.21,North,1,0.0,13.6,78,0.04,,,0.00,VWS V14.01,2013-06-23 04:50:00,
2013-06-23 00:51:00,66.9,58.1,30.21,North,1,0.0,13.6,73,0.04,,,0.00,VWS V14.01,2013-06-23 04:51:00,
2013-06-23 00:52:00,65.6,58.6,30.21,North,1,0.0,13.6,78,0.04,,,0.00,VWS V14.01,2013-06-23 04:52:00,
2013-06-23 00:53:00,65.5,58.6,30.21,North,1,0.0,13.6,78,0.04,,,0.00,VWS V14.01,2013-06-23 04:53:00,
2013-06-23 00:54:00,65.4,58.5,30.21,North,1,0.0,13.6,78,0.04,,,0.00,VWS V14.01,2013-06-23 04:54:00,
2013-06-23 00:55:00,65.4,58.5,30.21,North,1,0.0,13.6,78,0.04,,,0.00,VWS V14.01,2013-06-23 04:55:00,
2013-06-23 00:56:00,66.8,58.0,30.21,North,1,0.0,13.6,73,0.04,,,0.00,VWS V14.01,2013-06-23 04:56:00,
2013-06-23 00:57:00,65.4,58.6,30.20,North,1,0.0,13.6,79,0.04,,,0.00,VWS V14.01,2013-06-23 04:57:00,
2013-06-23 00:58:00,65.4,58.8,30.20,North,1,0.0,13.6,79,0.04,,,0.00,VWS V14.01,2013-06-23 04:58:00,
2013-06-23 00:59:00,65.3,58.8,30.20,North,1,0.0,13.6,80,0.04,,,0.00,VWS V14.01,2013-06-23 04:59:00,
2013-06-23 01:00:00,65.3,58.8,30.20,North,1,0.0,13.6,80,0.04,,,0.00,VWS V14.01,2013-06-23 05:00:00,
2013-06-23 01:01:00,65.3,58.9,30.20,North,1,0.0,13.6,80,0.04,,,0.00,VWS V14.01,2013-06-23 05:01:00,
2013-06-23 01:02:00,65.3,58.9,30.20,North,1,0.0,13.6,80,0.04,,,0.00,VWS V14.01,2013-06-23 05:02:00,
2013-06-23 01:03:00,65.3,58.9,30.20,North,1,0.0,13.6,80,0.04,,,0.00,VWS V14.01,2013-06-23 05:03:00,
2013-06-23 01:04:00,65.2,58.9,30.20,North,1,0.0,13.6,80,0.04,,,0.00,VWS V14.01,2013-06-23 05:04:00,
2013-06-23 01:05:00,65.2,58.9,30.20,North,1,0.0,13.6,80,0.04,,,0.00,VWS V14.01,2013-06-23 05:05:00,
2013-06-23 01:06:00,65.2,59.1,30.20,North,1,0.0,13.6,80,0.04,,,0.00,VWS V14.01,2013-06-23 05:06:00,
2013-06-23 01:07:00,65.1,59.1,30.20,North,1,0.0,13.6,81,0.04,,,0.00,VWS V14.01,2013-06-23 05:07:00,
2013-06-23 01:08:00,65.1,59.2,30.20,North,1,0.0,13.6,81,0.04,,,0.00,VWS V14.01,2013-06-23 05:08:00,
2013-06-23 01:09:00,65.1,59.2,30.20,North,1,0.0,13.6,81,0.04,,,0.00,VWS V14.01,2013-06-23 05:09:00,
2013-06-23 01:10:00,65.0,59.1,30.20,North,1,0.0,13.6,81,0.04,,,0.00,VWS V14.01,2013-06-23 05:10:00,
2013-06-23 01:11:00,65.0,59.1,30.20,North,1,0.0,13.6,81,0.04,,,0.00,VWS V14.01,2013-06-23 05:11:00,
2013-06-23 01:12:00,65.0,59.2,30.20,North,1,0.0,13.6,81,0.04,,,0.00,VWS V14.01,2013-06-23 05:12:00,
2013-06-23 01:13:00,64.9,59.1,30.20,North,1,0.0,13.6,82,0.04,,,0.00,VWS V14.01,2013-06-23 05:13:00,
2013-06-23 01:14:00,64.9,59.2,30.20,North,1,0.0,13.6,82,0.04,,,0.00,VWS V14.01,2013-06-23 05:14:00,
2013-06-23 01:15:00,64.9,59.2,30.20,North,1,0.0,13.6,82,0.04,,,0.00,VWS V14.01,2013-06-23 05:15:00,
2013-06-23 01:17:00,64.9,59.2,30.20,North,1,0.0,13.6,82,0.04,,,0.00,VWS V14.01,2013-06-23 05:17:00,
2013-06-23 01:18:00,64.9,59.2,30.20,North,1,0.0,13.6,82,0.04,,,0.00,VWS V14.01,2013-06-23 05:18:00,
2013-06-23 01:19:00,64.8,59.2,30.20,North,1,0.0,13.6,82,0.04,,,0.00,VWS V14.01,2013-06-23 05:19:00,
2013-06-23 01:22:00,64.8,59.1,30.20,North,1,0.0,13.6,82,0.04,,,0.00,VWS V14.01,2013-06-23 05:22:00,
2013-06-23 01:23:00,64.8,59.2,30.20,North,1,0.0,13.6,82,0.04,,,0.00,VWS V14.01,2013-06-23 05:23:00,
2013-06-23 01:24:00,64.8,59.2,30.20,North,1,0.0,13.6,82,0.04,,,0.00,VWS V14.01,2013-06-23 05:24:00,
2013-06-23 01:25:00,64.8,59.1,30.20,North,1,0.0,13.6,82,0.04,,,0.00,VWS V14.01,2013-06-23 05:25:00,
2013-06-23 01:26:00,64.8,59.0,30.20,North,1,0.0,13.6,82,0.04,,,0.00,VWS V14.01,2013-06-23 05:26:00,
2013-06-23 01:27:00,64.8,59.0,30.20,North,1,0.0,13.6,81,0.04,,,0.00,VWS V14.01,2013-06-23 05:27:00,
2013-06-23 01:29:00,64.8,58.9,30.20,North,1,0.0,13.6,81,0.04,,,0.00,VWS V14.01,2013-06-23 05:29:00,
2013-06-23 01:30:00,64.8,58.9,30.20,North,1,0.0,13.6,81,0.04,,,0.00,VWS V14.01,2013-06-23 05:30:00,
2013-06-23 01:31:00,64.8,58.8,30.20,North,1,0.0,13.6,81,0.04,,,0.00,VWS V14.01,2013-06-23 05:31:00,
2013-06-23 01:32:00,64.9,58.9,30.20,North,1,0.0,13.6,81,0.04,,,0.00,VWS V14.01,2013-06-23 05:32:00,
2013-06-23 01:38:00,64.9,58.7,30.19,North,1,0.0,13.6,80,0.04,,,0.00,VWS V14.01,2013-06-23 05:38:00,
2013-06-23 01:40:00,64.9,58.7,30.19,North,1,0.0,13.6,80,0.04,,,0.00,VWS V14.01,2013-06-23 05:40:00,
2013-06-23 01:41:00,65.0,58.8,30.19,North,1,0.0,13.6,80,0.04,,,0.00,VWS V14.01,2013-06-23 05:41:00,
2013-06-23 01:42:00,64.9,58.7,30.19,North,1,0.0,13.6,80,0.04,,,0.00,VWS V14.01,2013-06-23 05:42:00,
2013-06-23 01:43:00,64.9,58.8,30.19,North,1,0.0,13.6,80,0.04,,,0.00,VWS V14.01,2013-06-23 05:43:00,
2013-06-23 01:44:00,64.9,58.8,30.19,North,1,0.0,13.6,81,0.04,,,0.00,VWS V14.01,2013-06-23 05:44:00,
2013-06-23 01:45:00,64.9,58.9,30.19,North,1,0.0,13.6,81,0.04,,,0.00,VWS V14.01,2013-06-23 05:45:00,
2013-06-23 01:47:00,64.9,58.8,30.19,North,1,0.0,13.6,81,0.04,,,0.00,VWS V14.01,2013-06-23 05:47:00,
2013-06-23 01:48:00,64.9,58.9,30.19,North,1,0.0,13.6,81,0.04,,,0.00,VWS V14.01,2013-06-23 05:48:00,
2013-06-23 01:49:00,64.9,58.9,30.19,North,1,0.0,13.6,81,0.04,,,0.00,VWS V14.01,2013-06-23 05:49:00,
2013-06-23 01:50:00,64.9,58.8,30.19,North,1,0.0,13.6,81,0.04,,,0.00,VWS V14.01,2013-06-23 05:50:00,
2013-06-23 01:51:00,64.9,58.8,30.18,North,1,0.0,13.6,81,0.04,,,0.00,VWS V14.01,2013-06-23 05:51:00,
2013-06-23 01:59:00,64.9,58.7,30.18,North,1,0.0,13.6,80,0.04,,,0.00,VWS V14.01,2013-06-23 05:59:00,
2013-06-23 02:00:00,64.9,58.7,30.18,North,1,0.0,13.6,80,0.04,,,0.00,VWS V14.01,2013-06-23 06:00:00,
2013-06-23 02:01:00,64.9,58.7,30.18,North,1,0.0,13.6,80,0.04,,,0.00,VWS V14.01,2013-06-23 06:01:00,
2013-06-23 02:03:00,64.9,58.7,30.18,North,1,0.0,13.6,80,0.04,,,0.00,VWS V14.01,2013-06-23 06:03:00,
2013-06-23 02:04:00,64.9,58.7,30.18,North,1,0.0,13.6,80,0.04,,,0.00,VWS V14.01,2013-06-23 06:04:00,
2013-06-23 02:06:00,64.9,58.9,30.18,North,1,0.0,13.6,81,0.04,,,0.00,VWS V14.01,2013-06-23 06:06:00,
2013-06-23 02:07:00,64.9,59.0,30.18,North,1,0.0,13.6,81,0.04,,,0.00,VWS V14.01,2013-06-23 06:07:00,
2013-06-23 02:08:00,64.9,59.0,30.18,North,1,0.0,13.6,81,0.04,,,0.00,VWS V14.01,2013-06-23 06:08:00,
2013-06-23 02:11:00,64.9,58.9,30.18,North,1,0.0,13.6,81,0.04,,,0.00,VWS V14.01,2013-06-23 06:11:00,
2013-06-23 02:12:00,64.9,58.9,30.18,North,1,0.0,13.6,81,0.04,,,0.00,VWS V14.01,2013-06-23 06:12:00,
2013-06-23 02:14:00,64.9,59.1,30.20,North,1,0.0,13.6,82,0.04,,,0.00,VWS V14.01,2013-06-23 06:14:00,
2013-06-23 02:15:00,64.8,58.8,30.18,North,1,0.0,13.6,81,0.04,,,0.00,VWS V14.01,2013-06-23 06:15:00,
2013-06-23 02:21:00,64.8,58.7,30.18,North,1,0.0,13.6,81,0.04,,,0.00,VWS V14.01,2013-06-23 06:21:00,
2013-06-23 02:22:00,64.8,58.7,30.18,North,1,0.0,13.6,81,0.04,,,0.00,VWS V14.01,2013-06-23 06:22:00,
2013-06-23 02:25:00,64.8,59.0,30.20,North,1,0.0,13.6,81,0.04,,,0.00,VWS V14.01,2013-06-23 06:25:00,
2013-06-23 02:30:00,64.9,58.8,30.20,North,1,0.0,13.6,81,0.04,,,0.00,VWS V14.01,2013-06-23 06:30:00,
2013-06-23 02:36:00,64.9,58.7,30.19,North,1,0.0,13.6,80,0.04,,,0.00,VWS V14.01,2013-06-23 06:36:00,
2013-06-23 02:44:00,64.9,58.9,30.19,North,1,0.0,13.6,81,0.04,,,0.00,VWS V14.01,2013-06-23 06:44:00,
2013-06-23 02:50:00,64.9,58.8,30.19,North,1,0.0,13.6,81,0.04,,,0.00,VWS V14.01,2013-06-23 06:50:00,
2013-06-23 02:55:00,64.9,58.7,30.18,North,1,0.0,13.6,80,0.04,,,0.00,VWS V14.01,2013-06-23 06:55:00,
2013-06-23 03:02:00,64.9,58.9,30.18,North,1,0.0,13.6,81,0.04,,,0.00,VWS V14.01,2013-06-23 07:02:00,
2013-06-23 03:07:00,64.9,59.0,30.18,North,1,0.0,13.6,81,0.04,,,0.00,VWS V14.01,2013-06-23 07:07:00,
2013-06-23 03:13:00,64.8,58.8,30.18,North,1,0.0,13.6,81,0.04,,,0.00,VWS V14.01,2013-06-23 07:13:00,
2013-06-23 03:21:00,64.8,58.7,30.18,North,1,0.0,13.6,81,0.04,,,0.00,VWS V14.01,2013-06-23 07:21:00,
2013-06-23 03:26:00,64.7,58.8,30.18,North,1,0.0,13.6,81,0.04,,,0.00,VWS V14.01,2013-06-23 07:26:00,
2013-06-23 03:31:00,64.7,58.7,30.18,North,1,0.0,13.6,81,0.04,,,0.00,VWS V14.01,2013-06-23 07:31:00,
2013-06-23 03:36:00,64.7,58.8,30.18,North,1,0.0,13.6,81,0.04,,,0.00,VWS V14.01,2013-06-23 07:36:00,
2013-06-23 03:41:00,64.7,58.9,30.18,North,1,0.0,13.6,81,0.04,,,0.00,VWS V14.01,2013-06-23 07:41:00,
2013-06-23 03:46:00,64.6,58.9,30.18,North,1,0.0,13.6,82,0.04,,,0.00,VWS V14.01,2013-06-23 07:46:00,
2013-06-23 03:51:00,64.6,58.8,30.18,North,1,0.0,13.6,81,0.04,,,0.00,VWS V14.01,2013-06-23 07:51:00,
2013-06-23 03:57:00,64.6,58.7,30.18,North,1,0.0,13.6,81,0.04,,,0.00,VWS V14.01,2013-06-23 07:57:00,
2013-06-23 04:02:00,64.6,58.5,30.18,North,1,0.0,13.6,81,0.04,,,0.00,VWS V14.01,2013-06-23 08:02:00,
2013-06-23 04:07:00,64.7,58.5,30.18,North,1,0.0,13.6,80,0.04,,,0.00,VWS V14.01,2013-06-23 08:07:00,
2013-06-23 04:12:00,64.6,58.6,30.19,North,1,0.0,13.6,81,0.04,,,0.00,VWS V14.01,2013-06-23 08:12:00,
2013-06-23 04:17:00,64.6,58.8,30.19,North,1,0.0,13.6,81,0.04,,,0.00,VWS V14.01,2013-06-23 08:17:00,
2013-06-23 04:22:00,64.7,58.9,30.19,North,1,0.0,13.6,81,0.04,,,0.00,VWS V14.01,2013-06-23 08:22:00,
2013-06-23 04:28:00,64.7,59.0,30.19,North,1,0.0,13.6,82,0.04,,,0.00,VWS V14.01,2013-06-23 08:28:00,
2013-06-23 04:33:00,64.7,59.1,30.18,North,1,0.0,13.6,82,0.04,,,0.00,VWS V14.01,2013-06-23 08:33:00,
2013-06-23 04:38:00,64.6,59.0,30.18,North,1,0.0,13.6,82,0.04,,,0.00,VWS V14.01,2013-06-23 08:38:00,
2013-06-23 04:44:00,64.6,59.1,30.18,North,1,0.0,13.6,82,0.04,,,0.00,VWS V14.01,2013-06-23 08:44:00,
2013-06-23 04:49:00,64.6,59.4,30.18,North,1,0.0,13.6,83,0.04,,,0.00,VWS V14.01,2013-06-23 08:49:00,
2013-06-23 04:54:00,64.5,59.3,30.18,North,1,0.0,13.6,83,0.04,,,0.00,VWS V14.01,2013-06-23 08:54:00,
2013-06-23 04:59:00,64.5,59.4,30.18,North,1,0.0,13.6,83,0.04,,,0.00,VWS V14.01,2013-06-23 08:59:00,
2013-06-23 05:05:00,64.4,59.3,30.18,North,1,0.0,13.6,83,0.04,,,0.00,VWS V14.01,2013-06-23 09:05:00,
2013-06-23 05:10:00,64.4,59.4,30.19,North,1,0.0,13.6,84,0.04,,,0.00,VWS V14.01,2013-06-23 09:10:00,
2013-06-23 05:15:00,64.3,59.3,30.19,North,1,0.0,13.6,84,0.04,,,0.00,VWS V14.01,2013-06-23 09:15:00,
2013-06-23 05:21:00,64.3,59.3,30.19,North,1,0.0,13.6,84,0.04,,,0.00,VWS V14.01,2013-06-23 09:21:00,
2013-06-23 05:26:00,64.3,59.6,30.19,North,1,0.0,13.6,85,0.04,,,0.00,VWS V14.01,2013-06-23 09:26:00,
2013-06-23 05:32:00,64.3,59.7,30.19,North,1,0.0,13.6,85,0.04,,,0.00,VWS V14.01,2013-06-23 09:32:00,
2013-06-23 05:37:00,64.2,59.7,30.19,North,1,0.0,13.6,85,0.04,,,0.00,VWS V14.01,2013-06-23 09:37:00,
2013-06-23 05:42:00,64.3,59.9,30.18,North,1,0.0,13.6,86,0.04,,,0.00,VWS V14.01,2013-06-23 09:42:00,
2013-06-23 05:48:00,64.3,60.0,30.18,North,1,0.0,13.6,86,0.04,,,0.00,VWS V14.01,2013-06-23 09:48:00,
2013-06-23 05:53:00,64.3,60.3,30.18,North,1,0.0,13.6,87,0.04,,,0.00,VWS V14.01,2013-06-23 09:53:00,
2013-06-23 05:58:00,64.4,60.7,30.19,North,1,0.0,13.6,88,0.04,,,0.00,VWS V14.01,2013-06-23 09:58:00,
2013-06-23 06:03:00,64.4,60.8,30.19,North,1,0.0,13.6,88,0.04,,,0.00,VWS V14.01,2013-06-23 10:03:00,
2013-06-23 06:08:00,64.6,60.9,30.20,North,1,0.0,13.6,88,0.04,,,0.00,VWS V14.01,2013-06-23 10:08:00,
2013-06-23 06:13:00,64.8,61.0,30.20,North,1,0.0,13.6,88,0.04,,,0.00,VWS V14.01,2013-06-23 10:13:00,
2013-06-23 06:19:00,65.0,61.1,30.20,North,1,0.0,13.6,87,0.04,,,0.00,VWS V14.01,2013-06-23 10:19:00,
2013-06-23 06:24:00,65.2,61.1,30.20,North,1,0.0,13.6,87,0.04,,,0.00,VWS V14.01,2013-06-23 10:24:00,
2013-06-23 06:29:00,65.4,61.2,30.20,North,1,0.0,13.6,86,0.04,,,0.00,VWS V14.01,2013-06-23 10:29:00,
2013-06-23 06:34:00,65.6,61.4,30.20,North,1,0.0,13.6,86,0.04,,,0.00,VWS V14.01,2013-06-23 10:34:00,
2013-06-23 06:39:00,65.8,61.6,30.20,North,1,0.0,13.6,86,0.04,,,0.00,VWS V14.01,2013-06-23 10:39:00,
2013-06-23 06:44:00,66.0,61.8,30.20,North,1,0.0,13.6,86,0.04,,,0.00,VWS V14.01,2013-06-23 10:44:00,
2013-06-23 06:49:00,66.1,62.0,30.20,North,1,0.0,13.6,86,0.04,,,0.00,VWS V14.01,2013-06-23 10:49:00,
2013-06-23 06:54:00,66.4,62.3,30.20,North,1,0.0,13.6,87,0.04,,,0.00,VWS V14.01,2013-06-23 10:54:00,
2013-06-23 07:00:00,66.7,62.8,30.20,North,1,0.0,13.6,87,0.04,,,0.00,VWS V14.01,2013-06-23 11:00:00,
2013-06-23 07:05:00,66.9,63.0,30.20,North,1,0.0,13.6,87,0.04,,,0.00,VWS V14.01,2013-06-23 11:05:00,
2013-06-23 07:10:00,67.3,63.4,30.20,North,1,0.0,13.6,87,0.04,,,0.00,VWS V14.01,2013-06-23 11:10:00,
2013-06-23 07:15:00,67.8,64.0,30.20,North,1,0.0,13.6,88,0.04,,,0.00,VWS V14.01,2013-06-23 11:15:00,
2013-06-23 07:20:00,68.2,64.2,30.20,North,1,0.0,13.6,87,0.04,,,0.00,VWS V14.01,2013-06-23 11:20:00,
2013-06-23 07:25:00,68.5,64.1,30.21,North,1,0.0,13.6,86,0.04,,,0.00,VWS V14.01,2013-06-23 11:25:00,
2013-06-23 07:30:00,68.7,64.0,30.21,North,1,0.0,13.6,85,0.04,,,0.00,VWS V14.01,2013-06-23 11:30:00,
2013-06-23 07:36:00,69.1,64.1,30.21,North,1,0.0,13.6,84,0.04,,,0.00,VWS V14.01,2013-06-23 11:36:00,
2013-06-23 07:41:00,69.2,64.2,30.21,North,1,0.0,13.6,84,0.04,,,0.00,VWS V14.01,2013-06-23 11:41:00,
2013-06-23 07:46:00,69.4,64.4,30.21,North,1,0.0,13.6,84,0.04,,,0.00,VWS V14.01,2013-06-23 11:46:00,
2013-06-23 07:51:00,69.5,64.5,30.21,North,1,0.0,13.6,84,0.04,,,0.00,VWS V14.01,2013-06-23 11:51:00,
2013-06-23 07:56:00,69.5,64.6,30.21,North,1,0.0,13.6,84,0.04,,,0.00,VWS V14.01,2013-06-23 11:56:00,
2013-06-23 08:01:00,69.9,64.9,30.21,North,1,0.0,13.6,84,0.04,,,0.00,VWS V14.01,2013-06-23 12:01:00,
2013-06-23 08:06:00,70.4,65.4,30.21,North,1,0.0,13.6,84,0.04,,,0.00,VWS V14.01,2013-06-23 12:06:00,
2013-06-23 08:11:00,70.9,65.8,30.21,North,1,0.0,13.6,84,0.04,,,0.00,VWS V14.01,2013-06-23 12:11:00,
2013-06-23 08:17:00,71.3,66.1,30.21,North,1,0.0,13.6,84,0.04,,,0.00,VWS V14.01,2013-06-23 12:17:00,
2013-06-23 08:22:00,71.5,66.2,30.21,North,1,0.0,13.6,83,0.04,,,0.00,VWS V14.01,2013-06-23 12:22:00,
2013-06-23 08:27:00,71.7,66.2,30.22,North,1,0.0,13.6,83,0.04,,,0.00,VWS V14.01,2013-06-23 12:27:00,
2013-06-23 08:32:00,72.2,66.4,30.22,North,1,0.0,13.6,82,0.04,,,0.00,VWS V14.01,2013-06-23 12:32:00,
2013-06-23 08:37:00,73.0,66.2,30.22,North,1,0.0,13.6,79,0.04,,,0.00,VWS V14.01,2013-06-23 12:37:00,
2013-06-23 08:42:00,73.7,66.1,30.22,North,1,0.0,13.6,77,0.04,,,0.00,VWS V14.01,2013-06-23 12:42:00,
2013-06-23 08:47:00,74.2,66.1,30.22,North,1,0.0,13.6,76,0.04,,,0.00,VWS V14.01,2013-06-23 12:47:00,
2013-06-23 08:52:00,74.6,66.5,30.22,North,1,0.0,13.6,76,0.04,,,0.00,VWS V14.01,2013-06-23 12:52:00,
2013-06-23 08:58:00,75.0,66.3,30.22,North,1,0.0,13.6,74,0.04,,,0.00,VWS V14.01,2013-06-23 12:58:00,
2013-06-23 09:03:00,75.4,66.5,30.22,North,1,0.0,13.6,74,0.04,,,0.00,VWS V14.01,2013-06-23 13:03:00,
2013-06-23 09:08:00,75.8,66.3,30.22,North,1,0.0,13.6,72,0.04,,,0.00,VWS V14.01,2013-06-23 13:08:00,
2013-06-23 09:13:00,76.2,66.5,30.22,SE,142,0.0,13.6,72,0.04,,,0.00,VWS V14.01,2013-06-23 13:13:00,
2013-06-23 09:18:00,76.5,66.4,30.22,WSW,249,0.0,13.6,71,0.04,,,0.00,VWS V14.01,2013-06-23 13:18:00,
2013-06-23 09:23:00,76.8,66.1,30.21,WSW,249,0.0,13.6,70,0.04,,,0.00,VWS V14.01,2013-06-23 13:23:00,
2013-06-23 09:28:00,76.9,66.0,30.21,WSW,249,0.0,13.6,69,0.04,,,0.00,VWS V14.01,2013-06-23 13:28:00,
2013-06-23 09:34:00,77.2,66.0,30.21,South,172,0.0,13.6,68,0.04,,,0.00,VWS V14.01,2013-06-23 13:34:00,
2013-06-23 09:39:00,77.7,66.1,30.21,West,270,0.0,13.6,68,0.04,,,0.00,VWS V14.01,2013-06-23 13:39:00,
2013-06-23 09:44:00,78.1,66.4,30.20,WNW,302,0.0,13.6,67,0.04,,,0.00,VWS V14.01,2013-06-23 13:44:00,
2013-06-23 09:49:00,78.5,66.6,30.20,West,260,0.0,13.6,67,0.04,,,0.00,VWS V14.01,2013-06-23 13:49:00,
2013-06-23 09:54:00,78.8,66.2,30.20,WSW,256,0.0,13.6,65,0.04,,,0.00,VWS V14.01,2013-06-23 13:54:00,
2013-06-23 09:59:00,79.0,67.0,30.20,WSW,239,0.0,13.6,67,0.04,,,0.00,VWS V14.01,2013-06-23 13:59:00,
2013-06-23 10:04:00,79.4,67.2,30.20,West,274,3.0,13.6,66,0.04,,,0.00,VWS V14.01,2013-06-23 14:04:00,
2013-06-23 10:10:00,79.8,67.6,30.20,North,359,0.0,13.6,66,0.04,,,0.00,VWS V14.01,2013-06-23 14:10:00,
2013-06-23 10:15:00,80.2,67.3,30.19,West,264,0.0,13.6,65,0.04,,,0.00,VWS V14.01,2013-06-23 14:15:00,
2013-06-23 10:20:00,80.4,66.9,30.19,WSW,252,0.0,13.6,64,0.04,,,0.00,VWS V14.01,2013-06-23 14:20:00,
2013-06-23 10:25:00,81.2,67.2,30.19,WSW,249,0.0,13.6,63,0.04,,,0.00,VWS V14.01,2013-06-23 14:25:00,
2013-06-23 10:30:00,81.5,67.0,30.19,NW,314,0.0,13.6,61,0.04,,,0.00,VWS V14.01,2013-06-23 14:30:00,
2013-06-23 10:35:00,82.1,67.1,30.19,SSE,159,0.0,13.6,61,0.04,,,0.00,VWS V14.01,2013-06-23 14:35:00,
2013-06-23 10:41:00,82.4,67.1,30.19,SSE,159,4.2,13.6,60,0.04,,,0.00,VWS V14.01,2013-06-23 14:41:00,
2013-06-23 10:46:00,82.7,66.9,30.19,WNW,288,0.0,13.6,59,0.04,,,0.00,VWS V14.01,2013-06-23 14:46:00,
2013-06-23 10:51:00,83.0,67.3,30.18,West,262,5.2,13.6,59,0.04,,,0.00,VWS V14.01,2013-06-23 14:51:00,
2013-06-23 10:56:00,83.2,67.2,30.19,NW,318,0.0,13.6,58,0.04,,,0.00,VWS V14.01,2013-06-23 14:56:00,
2013-06-23 11:01:00,83.5,66.3,30.19,SW,235,0.0,13.6,56,0.04,,,0.00,VWS V14.01,2013-06-23 15:01:00,
2013-06-23 11:07:00,83.9,66.5,30.19,SSE,159,0.0,13.6,56,0.04,,,0.00,VWS V14.01,2013-06-23 15:07:00,
2013-06-23 11:12:00,84.2,66.1,30.19,WSW,250,2.5,13.6,55,0.04,,,0.00,VWS V14.01,2013-06-23 15:12:00,
2013-06-23 11:17:00,84.5,64.8,30.19,West,263,0.0,13.6,52,0.04,,,0.00,VWS V14.01,2013-06-23 15:17:00,
2013-06-23 11:22:00,84.8,66.7,30.19,SW,217,0.0,13.6,55,0.04,,,0.00,VWS V14.01,2013-06-23 15:22:00,
2013-06-23 11:27:00,85.2,65.7,30.18,NNW,329,0.0,13.6,52,0.04,,,0.00,VWS V14.01,2013-06-23 15:27:00,
2013-06-23 11:32:00,85.5,65.7,30.18,WSW,249,3.4,13.6,52,0.04,,,0.00,VWS V14.01,2013-06-23 15:32:00,
2013-06-23 11:38:00,85.6,64.7,30.18,WNW,284,0.0,13.6,50,0.04,,,0.00,VWS V14.01,2013-06-23 15:38:00,
2013-06-23 11:43:00,86.0,64.8,30.18,West,270,4.7,13.6,49,0.04,,,0.00,VWS V14.01,2013-06-23 15:43:00,
2013-06-23 11:48:00,86.3,63.6,30.18,WSW,246,0.0,13.6,47,0.04,,,0.00,VWS V14.01,2013-06-23 15:48:00,
2013-06-23 11:53:00,86.6,63.9,30.18,SW,233,0.0,13.6,47,0.04,,,0.00,VWS V14.01,2013-06-23 15:53:00,
2013-06-23 11:59:00,87.1,65.3,30.18,West,278,0.0,13.6,48,0.04,,,0.00,VWS V14.01,2013-06-23 15:59:00,
2013-06-23 12:00:00,90.8,64.4,30.17,ESE,107,0.0,13.6,42,0.04,,,0.00,VWS V14.01,2013-06-23 16:00:00,
2013-06-23 12:01:00,91.0,64.7,30.17,West,276,0.0,13.6,42,0.04,,,0.00,VWS V14.01,2013-06-23 16:01:00,
2013-06-23 12:02:00,90.9,65.9,30.17,West,276,0.0,13.6,44,0.04,,,0.00,VWS V14.01,2013-06-23 16:02:00,
2013-06-23 12:04:00,87.5,65.3,30.18,South,174,0.0,13.6,48,0.04,,,0.00,VWS V14.01,2013-06-23 16:04:00,
2013-06-23 12:05:00,90.9,64.9,30.17,West,276,0.0,13.6,42,0.04,,,0.00,VWS V14.01,2013-06-23 16:05:00,
2013-06-23 12:06:00,90.9,63.9,30.17,West,276,0.0,13.6,41,0.04,,,0.00,VWS V14.01,2013-06-23 16:06:00,
2013-06-23 12:07:00,90.9,64.7,30.17,West,276,0.0,13.6,42,0.04,,,0.00,VWS V14.01,2013-06-23 16:07:00,
2013-06-23 12:08:00,91.0,65.1,30.17,SW,228,3.5,13.6,42,0.04,,,0.00,VWS V14.01,2013-06-23 16:08:00,
2013-06-23 12:09:00,87.9,64.6,30.18,NW,323,0.0,13.6,46,0.04,,,0.00,VWS V14.01,2013-06-23 16:09:00,
2013-06-23 12:10:00,91.0,64.1,30.17,SW,228,0.0,13.6,41,0.04,,,0.00,VWS V14.01,2013-06-23 16:10:00,
2013-06-23 12:11:00,91.0,64.4,30.17,NW,305,0.0,13.6,42,0.04,,,0.00,VWS V14.01,2013-06-23 16:11:00,
2013-06-23 12:12:00,91.0,64.9,30.17,WSW,257,6.0,13.6,42,0.04,,,0.00,VWS V14.01,2013-06-23 16:12:00,
2013-06-23 12:13:00,91.0,63.8,30.17,SW,233,0.0,13.6,41,0.04,,,0.00,VWS V14.01,2013-06-23 16:13:00,
2013-06-23 12:14:00,87.8,64.7,30.18,SSW,208,0.0,13.6,46,0.04,,,0.00,VWS V14.01,2013-06-23 16:14:00,
2013-06-23 12:15:00,91.1,63.2,30.16,West,260,2.9,13.6,40,0.04,,,0.00,VWS V14.01,2013-06-23 16:15:00,
2013-06-23 12:16:00,91.1,63.7,30.16,West,260,0.0,13.6,40,0.04,,,0.00,VWS V14.01,2013-06-23 16:16:00,
2013-06-23 12:17:00,91.2,64.3,30.16,West,260,0.0,13.6,41,0.04,,,0.00,VWS V14.01,2013-06-23 16:17:00,
2013-06-23 12:18:00,91.3,64.4,30.16,NNW,333,0.0,13.6,41,0.04,,,0.00,VWS V14.01,2013-06-23 16:18:00,
2013-06-23 12:19:00,88.4,65.7,30.18,West,281,0.0,13.6,47,0.04,,,0.00,VWS V14.01,2013-06-23 16:19:00,
2013-06-23 12:20:00,91.5,65.0,30.16,NNW,333,0.0,13.6,42,0.04,,,0.00,VWS V14.01,2013-06-23 16:20:00,
2013-06-23 12:21:00,91.6,64.5,30.16,NNW,333,0.0,13.6,41,0.04,,,0.00,VWS V14.01,2013-06-23 16:21:00,
2013-06-23 12:22:00,91.7,64.0,30.16,NNW,333,0.0,13.6,40,0.04,,,0.00,VWS V14.01,2013-06-23 16:22:00,
2013-06-23 12:23:00,91.8,65.1,30.16,NNW,333,0.0,13.6,41,0.04,,,0.00,VWS V14.01,2013-06-23 16:23:00,
2013-06-23 12:24:00,91.9,65.0,30.16,South,187,6.5,13.6,41,0.04,,,0.00,VWS V14.01,2013-06-23 16:24:00,
2013-06-23 12:25:00,88.4,64.6,30.18,WNW,287,0.0,13.6,45,0.04,,,0.00,VWS V14.01,2013-06-23 16:25:00,
2013-06-23 12:26:00,92.0,64.6,30.16,SSE,150,0.0,13.6,40,0.04,,,0.00,VWS V14.01,2013-06-23 16:26:00,
2013-06-23 12:27:00,92.1,64.7,30.16,SSE,150,0.0,13.6,40,0.04,,,0.00,VWS V14.01,2013-06-23 16:27:00,
2013-06-23 12:28:00,92.3,64.8,30.16,SSE,150,0.0,13.6,40,0.04,,,0.00,VWS V14.01,2013-06-23 16:28:00,
2013-06-23 12:29:00,92.4,64.7,30.16,SSE,150,0.0,13.6,40,0.04,,,0.00,VWS V14.01,2013-06-23 16:29:00,
2013-06-23 12:30:00,89.0,65.8,30.18,WNW,287,0.0,13.6,46,0.04,,,0.00,VWS V14.01,2013-06-23 16:30:00,
2013-06-23 12:32:00,92.5,63.3,30.16,SW,214,0.0,13.6,38,0.04,,,0.00,VWS V14.01,2013-06-23 16:32:00,
2013-06-23 12:33:00,92.7,64.2,30.16,SW,214,0.0,13.6,39,0.04,,,0.00,VWS V14.01,2013-06-23 16:33:00,
2013-06-23 12:34:00,92.7,63.8,30.16,SW,214,0.0,13.6,39,0.04,,,0.00,VWS V14.01,2013-06-23 16:34:00,
2013-06-23 12:35:00,89.3,64.8,30.18,SW,232,0.0,13.6,44,0.04,,,0.00,VWS V14.01,2013-06-23 16:35:00,
2013-06-23 12:36:00,93.0,64.3,30.16,SW,214,0.0,13.6,39,0.04,,,0.00,VWS V14.01,2013-06-23 16:36:00,
2013-06-23 12:37:00,93.1,64.1,30.16,South,191,6.2,13.6,38,0.04,,,0.00,VWS V14.01,2013-06-23 16:37:00,
2013-06-23 12:38:00,93.1,63.6,30.16,South,169,0.0,13.6,38,0.04,,,0.00,VWS V14.01,2013-06-23 16:38:00,
2013-06-23 12:39:00,93.2,63.9,30.16,South,184,4.2,13.6,38,0.04,,,0.00,VWS V14.01,2013-06-23 16:39:00,
2013-06-23 12:40:00,89.3,65.7,30.18,SW,221,0.0,13.6,46,0.04,,,0.00,VWS V14.01,2013-06-23 16:40:00,
2013-06-23 12:41:00,93.2,64.0,30.16,SSW,204,5.5,13.6,38,0.04,,,0.00,VWS V14.01,2013-06-23 16:41:00,
2013-06-23 12:42:00,93.2,63.5,30.16,ESE,115,3.4,13.6,38,0.04,,,0.00,VWS V14.01,2013-06-23 16:42:00,
2013-06-23 12:43:00,93.2,63.2,30.15,SW,232,0.0,13.6,37,0.04,,,0.00,VWS V14.01,2013-06-23 16:43:00,
2013-06-23 12:44:00,93.3,63.5,30.15,SW,232,0.0,13.6,38,0.04,,,0.00,VWS V14.01,2013-06-23 16:44:00,
2013-06-23 12:45:00,89.8,65.2,30.17,WSW,248,0.0,13.6,44,0.04,,,0.00,VWS V14.01,2013-06-23 16:45:00,
2013-06-23 12:46:00,93.3,63.5,30.15,SW,232,0.0,13.6,37,0.04,,,0.00,VWS V14.01,2013-06-23 16:46:00,
2013-06-23 12:47:00,93.4,63.9,30.15,SW,232,0.0,13.6,38,0.04,,,0.00,VWS V14.01,2013-06-23 16:47:00,
2013-06-23 12:48:00,93.4,64.1,30.15,SW,232,0.0,13.6,38,0.04,,,0.00,VWS V14.01,2013-06-23 16:48:00,
2013-06-23 12:49:00,93.7,64.2,30.15,SW,232,0.0,13.6,38,0.04,,,0.00,VWS V14.01,2013-06-23 16:49:00,
2013-06-23 12:50:00,90.2,65.1,30.17,WSW,242,0.0,13.6,44,0.04,,,0.00,VWS V14.01,2013-06-23 16:50:00,
2013-06-23 12:51:00,93.8,63.6,30.15,SW,232,0.0,13.6,37,0.04,,,0.00,VWS V14.01,2013-06-23 16:51:00,
2013-06-23 12:52:00,93.8,63.6,30.15,SW,232,0.0,13.6,37,0.04,,,0.00,VWS V14.01,2013-06-23 16:52:00,
2013-06-23 12:53:00,93.8,63.9,30.15,SW,232,0.0,13.6,37,0.04,,,0.00,VWS V14.01,2013-06-23 16:53:00,
2013-06-23 12:54:00,93.8,63.0,30.15,West,276,0.0,13.6,36,0.04,,,0.00,VWS V14.01,2013-06-23 16:54:00,
2013-06-23 12:55:00,93.5,62.5,30.15,NW,321,0.0,13.6,36,0.04,,,0.00,VWS V14.01,2013-06-23 16:55:00,
2013-06-23 12:56:00,90.8,64.8,30.17,ESE,107,0.0,13.6,42,0.04,,,0.00,VWS V14.01,2013-06-23 16:56:00,
2013-06-23 12:57:00,93.5,63.3,30.15,SSW,201,3.4,13.6,37,0.04,,,0.00,VWS V14.01,2013-06-23 16:57:00,
2013-06-23 12:58:00,93.7,63.5,30.15,ESE,107,0.0,13.6,37,0.04,,,0.00,VWS V14.01,2013-06-23 16:58:00,
2013-06-23 12:59:00,93.5,63.9,30.15,SSW,208,4.4,13.6,38,0.04,,,0.00,VWS V14.01,2013-06-23 16:59:00,
2013-06-23 13:00:00,93.7,63.3,30.15,West,278,0.0,13.6,37,0.04,,,0.00,VWS V14.01,2013-06-23 17:00:00,
2013-06-23 13:01:00,93.7,62.8,30.15,West,278,0.0,13.6,36,0.04,,,0.00,VWS V14.01,2013-06-23 17:01:00,
2013-06-23 13:02:00,93.7,63.4,30.14,West,278,0.0,13.6,37,0.04,,,0.00,VWS V14.01,2013-06-23 17:02:00,
2013-06-23 13:03:00,93.3,62.2,30.14,West,278,0.0,13.6,36,0.04,,,0.00,VWS V14.01,2013-06-23 17:03:00,
2013-06-23 13:04:00,93.4,63.4,30.14,West,278,0.0,13.6,37,0.04,,,0.00,VWS V14.01,2013-06-23 17:04:00,
2013-06-23 13:05:00,93.4,63.3,30.14,WSW,243,0.0,13.6,37,0.04,,,0.00,VWS V14.01,2013-06-23 17:05:00,
2013-06-23 13:07:00,93.7,63.8,30.14,WSW,243,0.0,13.6,37,0.04,,,0.00,VWS V14.01,2013-06-23 17:07:00,
2013-06-23 13:08:00,93.7,64.1,30.14,WSW,243,0.0,13.6,38,0.04,,,0.00,VWS V14.01,2013-06-23 17:08:00,
2013-06-23 13:09:00,93.8,63.6,30.14,WSW,243,0.0,13.6,37,0.04,,,0.00,VWS V14.01,2013-06-23 17:09:00,
2013-06-23 13:10:00,93.9,63.5,30.14,WSW,243,0.0,13.6,37,0.04,,,0.00,VWS V14.01,2013-06-23 17:10:00,
2013-06-23 13:11:00,93.9,62.8,30.14,WSW,243,0.0,13.6,36,0.04,,,0.00,VWS V14.01,2013-06-23 17:11:00,
2013-06-23 13:12:00,93.9,62.8,30.14,WSW,243,0.0,13.6,36,0.04,,,0.00,VWS V14.01,2013-06-23 17:12:00,
2013-06-23 13:13:00,94.0,63.3,30.14,WSW,243,0.0,13.6,36,0.04,,,0.00,VWS V14.01,2013-06-23 17:13:00,
2013-06-23 13:14:00,93.9,62.3,30.14,WSW,243,5.1,13.6,35,0.04,,,0.00,VWS V14.01,2013-06-23 17:14:00,
2013-06-23 13:15:00,93.9,62.9,30.14,SE,132,0.0,13.6,36,0.04,,,0.00,VWS V14.01,2013-06-23 17:15:00,
2013-06-23 13:16:00,94.0,63.2,30.14,SSE,156,0.0,13.6,36,0.04,,,0.00,VWS V14.01,2013-06-23 17:16:00,
2013-06-23 13:17:00,94.2,63.4,30.14,SSE,165,0.0,13.6,36,0.04,,,0.00,VWS V14.01,2013-06-23 17:17:00,
2013-06-23 13:18:00,94.1,62.4,30.14,South,174,5.0,13.6,35,0.04,,,0.00,VWS V14.01,2013-06-23 17:18:00,
2013-06-23 13:19:00,94.3,62.9,30.14,ESE,104,0.0,13.6,36,0.04,,,0.00,VWS V14.01,2013-06-23 17:19:00,
2013-06-23 13:20:00,94.4,62.9,30.14,ESE,104,0.0,13.6,35,0.04,,,0.00,VWS V14.01,2013-06-23 17:20:00,
2013-06-23 13:21:00,94.7,63.2,30.14,ESE,104,0.0,13.6,36,0.04,,,0.00,VWS V14.01,2013-06-23 17:21:00,
2013-06-23 13:22:00,94.7,62.9,30.14,East,93,0.0,13.6,35,0.04,,,0.00,VWS V14.01,2013-06-23 17:22:00,
2013-06-23 13:23:00,94.8,62.9,30.14,SW,229,0.0,13.6,35,0.04,,,0.00,VWS V14.01,2013-06-23 17:23:00,
2013-06-23 13:24:00,94.8,62.4,30.14,SW,229,0.0,13.6,34,0.04,,,0.00,VWS V14.01,2013-06-23 17:24:00,
2013-06-23 13:26:00,94.8,62.8,30.14,ENE,63,0.0,13.6,35,0.04,,,0.00,VWS V14.01,2013-06-23 17:26:00,
2013-06-23 13:28:00,94.8,62.4,30.14,SSW,198,6.0,13.6,34,0.04,,,0.00,VWS V14.01,2013-06-23 17:28:00,
2013-06-23 13:29:00,94.8,62.1,30.14,NE,52,1.4,13.6,34,0.04,,,0.00,VWS V14.01,2013-06-23 17:29:00,
2013-06-23 13:30:00,94.7,61.7,30.14,NW,322,0.0,13.6,34,0.04,,,0.00,VWS V14.01,2013-06-23 17:30:00,
2013-06-23 13:33:00,94.5,63.4,30.14,NW,322,4.3,13.6,36,0.04,,,0.00,VWS V14.01,2013-06-23 17:33:00,
2013-06-23 13:34:00,94.7,63.8,30.14,SSE,160,0.0,13.6,36,0.04,,,0.00,VWS V14.01,2013-06-23 17:34:00,
2013-06-23 13:35:00,94.8,62.9,30.14,SSE,160,0.0,13.6,35,0.04,,,0.00,VWS V14.01,2013-06-23 17:35:00,
2013-06-23 13:38:00,94.8,64.7,30.14,North,359,0.0,13.6,37,0.04,,,0.00,VWS V14.01,2013-06-23 17:38:00,
2013-06-23 13:39:00,94.8,64.9,30.14,North,349,0.0,13.6,38,0.04,,,0.00,VWS V14.01,2013-06-23 17:39:00,
2013-06-23 13:42:00,94.7,63.4,30.14,WSW,242,0.0,13.6,36,0.04,,,0.00,VWS V14.01,2013-06-23 17:42:00,
2013-06-23 13:43:00,94.7,64.2,30.14,WSW,242,0.0,13.6,37,0.04,,,0.00,VWS V14.01,2013-06-23 17:43:00,
2013-06-23 13:49:00,94.7,62.3,30.14,NW,315,0.0,13.6,34,0.04,,,0.00,VWS V14.01,2013-06-23 17:49:00,
2013-06-23 13:53:00,94.2,61.5,30.14,SSW,197,4.3,13.6,34,0.04,,,0.00,VWS V14.01,2013-06-23 17:53:00,
2013-06-23 13:58:00,94.5,63.8,30.13,NW,316,5.8,13.6,36,0.04,,,0.00,VWS V14.01,2013-06-23 17:58:00,
2013-06-23 14:10:00,94.9,63.1,30.13,NE,56,0.0,13.6,35,0.04,,,0.00,VWS V14.01,2013-06-23 18:10:00,
2013-06-23 14:21:00,96.2,63.3,30.13,WSW,245,0.0,13.6,34,0.04,,,0.00,VWS V14.01,2013-06-23 18:21:00,
2013-06-23 14:22:00,94.8,62.9,30.14,SW,229,0.0,13.6,35,0.04,,,0.00,VWS V14.01,2013-06-23 18:22:00,
2013-06-23 14:28:00,94.4,62.2,30.14,NW,322,0.0,13.6,35,0.04,,,0.00,VWS V14.01,2013-06-23 18:28:00,
2013-06-23 14:29:00,96.3,63.4,30.13,North,359,0.0,13.6,34,0.04,,,0.00,VWS V14.01,2013-06-23 18:29:00,
2013-06-23 14:34:00,94.8,62.4,30.14,SSE,150,3.2,13.6,34,0.04,,,0.00,VWS V14.01,2013-06-23 18:34:00,
2013-06-23 14:39:00,94.7,63.4,30.14,North,349,0.0,13.6,36,0.04,,,0.00,VWS V14.01,2013-06-23 18:39:00,
2013-06-23 14:42:00,95.8,64.3,30.12,SW,224,6.5,13.6,36,0.04,,,0.00,VWS V14.01,2013-06-23 18:42:00,
2013-06-23 14:44:00,94.7,61.8,30.14,WSW,252,3.5,13.6,34,0.04,,,0.00,VWS V14.01,2013-06-23 18:44:00,
2013-06-23 14:49:00,94.4,62.8,30.14,WNW,284,8.0,13.6,35,0.04,,,0.00,VWS V14.01,2013-06-23 18:49:00,
2013-06-23 14:54:00,94.4,64.9,30.13,SSW,207,0.0,13.6,38,0.04,,,0.00,VWS V14.01,2013-06-23 18:54:00,
2013-06-23 14:59:00,94.8,62.1,30.13,South,177,0.0,13.6,34,0.04,,,0.00,VWS V14.01,2013-06-23 18:59:00,
2013-06-23 15:04:00,94.8,62.5,30.13,NE,56,0.0,13.6,34,0.04,,,0.00,VWS V14.01,2013-06-23 19:04:00,
2013-06-23 15:10:00,95.1,63.1,30.13,South,187,0.0,13.6,35,0.04,,,0.00,VWS V14.01,2013-06-23 19:10:00,
2013-06-23 15:15:00,95.9,62.4,30.13,South,183,0.0,13.6,33,0.04,,,0.00,VWS V14.01,2013-06-23 19:15:00,
2013-06-23 15:20:00,96.3,63.4,30.13,NW,319,4.3,13.6,34,0.04,,,0.00,VWS V14.01,2013-06-23 19:20:00,
2013-06-23 15:25:00,96.3,62.5,30.13,North,359,0.0,13.6,33,0.04,,,0.00,VWS V14.01,2013-06-23 19:25:00,
2013-06-23 15:30:00,96.4,62.5,30.13,WSW,242,4.9,13.6,33,0.04,,,0.00,VWS V14.01,2013-06-23 19:30:00,
2013-06-23 15:35:00,96.0,63.0,30.12,SW,233,3.4,13.6,34,0.04,,,0.00,VWS V14.01,2013-06-23 19:35:00,
2013-06-23 15:40:00,95.5,63.2,30.12,SSE,165,0.0,13.6,35,0.04,,,0.00,VWS V14.01,2013-06-23 19:40:00,
2013-06-23 15:45:00,95.5,64.8,30.12,ESE,112,0.0,13.6,37,0.04,,,0.00,VWS V14.01,2013-06-23 19:45:00,
2013-06-23 15:51:00,94.9,63.7,30.12,North,7,0.0,13.6,36,0.04,,,0.00,VWS V14.01,2013-06-23 19:51:00,
2013-06-23 15:56:00,95.0,63.3,30.12,ESE,108,0.0,13.6,35,0.04,,,0.00,VWS V14.01,2013-06-23 19:56:00,
2013-06-23 16:01:00,95.7,63.2,30.12,WSW,257,0.0,13.6,34,0.04,,,0.00,VWS V14.01,2013-06-23 20:01:00,
2013-06-23 16:06:00,96.2,64.8,30.12,SW,236,0.0,13.6,36,0.04,,,0.00,VWS V14.01,2013-06-23 20:06:00,
2013-06-23 16:12:00,96.1,64.7,30.11,West,276,7.3,13.6,36,0.04,,,0.00,VWS V14.01,2013-06-23 20:12:00,
2013-06-23 16:17:00,96.5,66.2,30.12,West,280,0.0,13.6,37,0.04,,,0.00,VWS V14.01,2013-06-23 20:17:00,
2013-06-23 16:23:00,96.9,64.4,30.11,SSW,200,12.0,13.6,35,0.04,,,0.00,VWS V14.01,2013-06-23 20:23:00,
2013-06-23 16:28:00,97.1,64.3,30.12,West,280,0.0,13.6,34,0.04,,,0.00,VWS V14.01,2013-06-23 20:28:00,
2013-06-23 16:33:00,97.3,63.9,30.11,SSW,200,4.7,13.6,34,0.04,,,0.00,VWS V14.01,2013-06-23 20:33:00,
2013-06-23 16:39:00,96.8,65.1,30.10,South,170,5.5,13.6,36,0.04,,,0.00,VWS V14.01,2013-06-23 20:39:00,
2013-06-23 16:45:00,97.0,65.7,30.10,East,94,0.0,13.6,36,0.04,,,0.00,VWS V14.01,2013-06-23 20:45:00,
2013-06-23 16:50:00,96.9,65.9,30.10,ENE,59,0.0,13.6,36,0.04,,,0.00,VWS V14.01,2013-06-23 20:50:00,
2013-06-23 16:56:00,97.4,66.0,30.10,SSW,195,0.0,13.6,36,0.04,,,0.00,VWS V14.01,2013-06-23 20:56:00,
2013-06-23 17:01:00,97.8,66.8,30.10,SW,218,0.0,13.6,37,0.04,,,0.00,VWS V14.01,2013-06-23 21:01:00,
2013-06-23 17:06:00,98.0,66.9,30.10,West,262,0.0,13.6,36,0.04,,,0.00,VWS V14.01,2013-06-23 21:06:00,
2013-06-23 17:12:00,98.1,65.6,30.11,NNW,339,0.0,13.6,35,0.04,,,0.00,VWS V14.01,2013-06-23 21:12:00,
2013-06-23 17:18:00,97.1,65.9,30.11,ESE,118,0.0,13.6,36,0.04,,,0.00,VWS V14.01,2013-06-23 21:18:00,
2013-06-23 17:23:00,96.3,66.4,30.11,West,281,0.0,13.6,38,0.04,,,0.00,VWS V14.01,2013-06-23 21:23:00,
2013-06-23 17:28:00,96.4,66.2,30.11,SE,124,0.0,13.6,37,0.04,,,0.00,VWS V14.01,2013-06-23 21:28:00,
2013-06-23 17:33:00,96.3,65.7,30.11,SSE,163,0.0,13.6,37,0.04,,,0.00,VWS V14.01,2013-06-23 21:33:00,
2013-06-23 17:39:00,96.3,66.2,30.11,South,180,0.0,13.6,38,0.04,,,0.00,VWS V14.01,2013-06-23 21:39:00,
2013-06-23 17:45:00,96.3,66.0,30.11,SSE,160,12.7,13.6,37,0.04,,,0.00,VWS V14.01,2013-06-23 21:45:00,
2013-06-23 17:50:00,95.8,66.1,30.11,WNW,295,0.0,13.6,38,0.04,,,0.00,VWS V14.01,2013-06-23 21:50:00,
2013-06-23 17:55:00,94.8,66.2,30.11,SSW,202,5.6,13.6,39,0.04,,,0.00,VWS V14.01,2013-06-23 21:55:00,
2013-06-23 18:01:00,93.8,66.1,30.10,SW,225,0.0,13.6,40,0.04,,,0.00,VWS V14.01,2013-06-23 22:01:00,
2013-06-23 18:06:00,92.0,66.4,30.10,WNW,295,0.0,13.6,43,0.04,,,0.00,VWS V14.01,2013-06-23 22:06:00,
2013-06-23 18:11:00,91.1,66.5,30.10,SSW,210,0.0,13.6,44,0.04,,,0.00,VWS V14.01,2013-06-23 22:11:00,
2013-06-23 18:17:00,90.0,66.7,30.10,West,263,0.0,13.6,46,0.04,,,0.00,VWS V14.01,2013-06-23 22:17:00,
2013-06-23 18:22:00,89.2,67.0,30.10,NW,326,0.0,13.6,48,0.04,,,0.00,VWS V14.01,2013-06-23 22:22:00,
2013-06-23 18:27:00,88.6,67.0,30.10,SW,217,0.0,13.6,49,0.04,,,0.00,VWS V14.01,2013-06-23 22:27:00,
2013-06-23 18:33:00,88.2,67.0,30.10,SSW,202,0.0,13.6,50,0.04,,,0.00,VWS V14.01,2013-06-23 22:33:00,
2013-06-23 18:38:00,87.8,67.3,30.10,SW,215,0.0,13.6,51,0.04,,,0.00,VWS V14.01,2013-06-23 22:38:00,
2013-06-23 18:43:00,87.4,67.7,30.09,SW,228,0.0,13.6,52,0.04,,,0.00,VWS V14.01,2013-06-23 22:43:00,
2013-06-23 18:48:00,87.2,67.6,30.09,SW,228,0.0,13.6,52,0.04,,,0.00,VWS V14.01,2013-06-23 22:48:00,
2013-06-23 18:53:00,87.1,67.7,30.09,WSW,256,3.2,13.6,53,0.04,,,0.00,VWS V14.01,2013-06-23 22:53:00,
2013-06-23 18:58:00,86.9,68.2,30.09,WSW,256,0.0,13.6,54,0.04,,,0.00,VWS V14.01,2013-06-23 22:58:00,
2013-06-23 19:03:00,86.5,67.2,30.09,SW,228,0.0,13.6,53,0.04,,,0.00,VWS V14.01,2013-06-23 23:03:00,
2013-06-23 19:08:00,86.4,67.4,30.09,West,271,0.0,13.6,53,0.04,,,0.00,VWS V14.01,2013-06-23 23:08:00,
2013-06-23 19:14:00,85.9,67.0,30.09,SW,226,0.0,13.6,53,0.04,,,0.00,VWS V14.01,2013-06-23 23:14:00,
2013-06-23 19:19:00,85.4,67.4,30.09,South,186,0.0,13.6,55,0.04,,,0.00,VWS V14.01,2013-06-23 23:19:00,
2013-06-23 19:24:00,84.9,66.8,30.09,WNW,290,3.1,13.6,55,0.04,,,0.00,VWS V14.01,2013-06-23 23:24:00,
2013-06-23 19:29:00,84.3,66.0,30.09,SSE,155,0.0,13.6,54,0.04,,,0.00,VWS V14.01,2013-06-23 23:29:00,
2013-06-23 19:34:00,83.8,65.8,30.09,WSW,240,0.0,13.6,55,0.04,,,0.00,VWS V14.01,2013-06-23 23:34:00,
2013-06-23 19:39:00,83.4,65.8,30.09,South,191,0.0,13.6,55,0.04,,,0.00,VWS V14.01,2013-06-23 23:39:00,
2013-06-23 19:44:00,83.5,66.0,30.09,SW,235,3.0,13.6,56,0.04,,,0.00,VWS V14.01,2013-06-23 23:44:00,
2013-06-23 19:50:00,83.2,65.8,30.10,East,98,0.0,13.6,56,0.04,,,0.00,VWS V14.01,2013-06-23 23:50:00,
2013-06-23 19:55:00,82.9,66.2,30.10,North,359,0.0,13.6,57,0.04,,,0.00,VWS V14.01,2013-06-23 23:55:00,
2013-06-23 20:00:00,82.4,66.5,30.10,NNE,24,2.9,13.6,59,0.04,,,0.00,VWS V14.01,2013-06-24 00:00:00,
2013-06-23 20:05:00,82.2,66.4,30.10,SW,214,0.0,13.6,59,0.04,,,0.00,VWS V14.01,2013-06-24 00:05:00,
2013-06-23 20:10:00,82.3,66.8,30.10,SW,214,0.0,13.6,59,0.04,,,0.00,VWS V14.01,2013-06-24 00:10:00,
2013-06-23 20:15:00,82.1,66.8,30.10,SSE,167,0.0,13.6,60,0.04,,,0.00,VWS V14.01,2013-06-24 00:15:00,
2013-06-23 20:20:00,81.7,67.0,30.09,WSW,255,0.0,13.6,61,0.04,,,0.00,VWS V14.01,2013-06-24 00:20:00,
2013-06-23 20:26:00,81.5,67.2,30.10,WSW,255,0.0,13.6,62,0.04,,,0.00,VWS V14.01,2013-06-24 00:26:00,
2013-06-23 20:31:00,81.0,67.6,30.10,WSW,255,0.0,13.6,64,0.04,,,0.00,VWS V14.01,2013-06-24 00:31:00,
2013-06-23 20:36:00,80.4,67.3,30.10,WSW,255,0.0,13.6,64,0.04,,,0.00,VWS V14.01,2013-06-24 00:36:00,
2013-06-23 20:41:00,80.3,67.7,30.10,WSW,255,0.0,13.6,65,0.04,,,0.00,VWS V14.01,2013-06-24 00:41:00,
2013-06-23 20:46:00,80.0,67.9,30.10,WSW,255,0.0,13.6,67,0.04,,,0.00,VWS V14.01,2013-06-24 00:46:00,
2013-06-23 20:51:00,80.0,68.3,30.11,WSW,255,0.0,13.6,68,0.04,,,0.00,VWS V14.01,2013-06-24 00:51:00,
2013-06-23 20:56:00,79.5,68.0,30.11,SSW,212,4.8,13.6,68,0.04,,,0.00,VWS V14.01,2013-06-24 00:56:00,
2013-06-23 21:02:00,79.4,68.3,30.11,ENE,72,0.0,13.6,69,0.04,,,0.00,VWS V14.01,2013-06-24 01:02:00,
2013-06-23 21:07:00,79.2,68.5,30.11,ESE,114,0.0,13.6,70,0.04,,,0.00,VWS V14.01,2013-06-24 01:07:00,
2013-06-23 21:12:00,78.9,68.1,30.11,SW,229,0.0,13.6,70,0.04,,,0.00,VWS V14.01,2013-06-24 01:12:00,
2013-06-23 21:17:00,79.0,68.4,30.11,SW,231,2.5,13.6,70,0.04,,,0.00,VWS V14.01,2013-06-24 01:17:00,
2013-06-23 21:22:00,78.9,68.3,30.11,WSW,240,0.0,13.6,70,0.04,,,0.00,VWS V14.01,2013-06-24 01:22:00,
2013-06-23 21:27:00,78.5,68.6,30.11,WSW,240,0.0,13.6,72,0.04,,,0.00,VWS V14.01,2013-06-24 01:27:00,
2013-06-23 21:33:00,78.3,68.9,30.10,WSW,240,0.0,13.6,73,0.04,,,0.00,VWS V14.01,2013-06-24 01:33:00,
2013-06-23 21:38:00,78.0,68.9,30.10,WSW,240,0.0,13.6,74,0.04,,,0.00,VWS V14.01,2013-06-24 01:38:00,
2013-06-23 21:43:00,77.7,68.8,30.10,WSW,240,0.0,13.6,74,0.04,,,0.00,VWS V14.01,2013-06-24 01:43:00,
2013-06-23 21:48:00,77.7,69.1,30.11,WSW,240,0.0,13.6,75,0.04,,,0.00,VWS V14.01,2013-06-24 01:48:00,
2013-06-23 21:53:00,77.2,68.8,30.12,WSW,240,0.0,13.6,75,0.04,,,0.00,VWS V14.01,2013-06-24 01:53:00,
2013-06-23 21:58:00,77.3,68.8,30.12,WSW,240,0.0,13.6,75,0.04,,,0.00,VWS V14.01,2013-06-24 01:58:00,
2013-06-23 22:03:00,77.2,68.6,30.12,WSW,240,0.0,13.6,75,0.04,,,0.00,VWS V14.01,2013-06-24 02:03:00,
2013-06-23 22:09:00,77.2,69.3,30.12,WSW,240,0.0,13.6,77,0.04,,,0.00,VWS V14.01,2013-06-24 02:09:00,
2013-06-23 22:14:00,77.0,69.0,30.12,WSW,238,0.0,13.6,76,0.04,,,0.00,VWS V14.01,2013-06-24 02:14:00,
2013-06-23 22:19:00,76.8,69.5,30.12,WSW,238,0.0,13.6,78,0.04,,,0.00,VWS V14.01,2013-06-24 02:19:00,
2013-06-23 22:24:00,76.5,69.4,30.12,West,259,0.0,13.6,79,0.04,,,0.00,VWS V14.01,2013-06-24 02:24:00,
2013-06-23 22:29:00,76.5,69.1,30.12,West,259,0.0,13.6,78,0.04,,,0.00,VWS V14.01,2013-06-24 02:29:00,
2013-06-23 22:35:00,76.5,69.1,30.12,West,259,0.0,13.6,78,0.04,,,0.00,VWS V14.01,2013-06-24 02:35:00,
2013-06-23 22:40:00,76.6,69.2,30.12,West,259,0.0,13.6,78,0.04,,,0.00,VWS V14.01,2013-06-24 02:40:00,
2013-06-23 22:45:00,76.4,69.2,30.12,West,259,0.0,13.6,78,0.04,,,0.00,VWS V14.01,2013-06-24 02:45:00,
2013-06-23 22:50:00,76.3,69.0,30.12,West,259,0.0,13.6,78,0.04,,,0.00,VWS V14.01,2013-06-24 02:50:00,
2013-06-23 22:55:00,76.2,68.9,30.12,West,259,0.0,13.6,78,0.04,,,0.00,VWS V14.01,2013-06-24 02:55:00,
2013-06-23 23:00:00,76.2,69.0,30.12,West,259,0.0,13.6,78,0.04,,,0.00,VWS V14.01,2013-06-24 03:00:00,
2013-06-23 23:06:00,76.2,69.1,30.12,West,259,0.0,13.6,79,0.04,,,0.00,VWS V14.01,2013-06-24 03:06:00,
2013-06-23 23:11:00,76.0,69.1,30.11,West,259,0.0,13.6,79,0.04,,,0.00,VWS V14.01,2013-06-24 03:11:00,
2013-06-23 23:16:00,75.8,69.0,30.11,West,259,0.0,13.6,79,0.04,,,0.00,VWS V14.01,2013-06-24 03:16:00,
2013-06-23 23:21:00,75.7,68.9,30.11,West,259,0.0,13.6,80,0.04,,,0.00,VWS V14.01,2013-06-24 03:21:00,
2013-06-23 23:26:00,75.4,69.3,30.11,West,259,0.0,13.6,81,0.04,,,0.00,VWS V14.01,2013-06-24 03:26:00,
2013-06-23 23:31:00,75.1,69.1,30.11,West,259,0.0,13.6,82,0.04,,,0.00,VWS V14.01,2013-06-24 03:31:00,
2013-06-23 23:36:00,75.0,69.3,30.12,West,259,0.0,13.6,83,0.04,,,0.00,VWS V14.01,2013-06-24 03:36:00,
2013-06-23 23:42:00,74.9,69.4,30.12,West,259,0.0,13.6,83,0.04,,,0.00,VWS V14.01,2013-06-24 03:42:00,
2013-06-23 23:47:00,74.8,69.3,30.12,West,259,0.0,13.6,83,0.04,,,0.00,VWS V14.01,2013-06-24 03:47:00,
2013-06-23 23:52:00,74.9,69.2,30.11,West,259,0.0,13.6,83,0.04,,,0.00,VWS V14.01,2013-06-24 03:52:00,
2013-06-23 23:57:00,75.0,69.3,30.11,West,259,0.0,13.6,82,0.04,,,0.00,VWS V14.01,2013-06-24 03:57:00,